Time;durP1;ratioP1;P1;durP2;ratioP2;P2;SDS_P1;SDS_P2;PMS_P1;PMS_P2;Temp;Humidity;BMP_temperature;BMP_pressure;BME280_temperature;BME280_humidity;BME280_pressure;Samples;Min_cycle;Max_cycle;Signal;HPM_P1;HPM_P2
2022/05/26 00:02:08;;;;;;;1.80;1.43;;;;;;;;;;4961131;28;20455;-76
2022/05/26 00:04:34;;;;;;;2.57;1.70;;;;;;;;;;4972333;28;20809;-76
2022/05/26 00:07:03;;;;;;;1.87;1.40;;;;;;;;;;4971474;28;21017;-76
2022/05/26 00:09:29;;;;;;;3.40;1.43;;;;;;;;;;4970824;28;20442;-75
2022/05/26 00:11:55;;;;;;;2.27;1.40;;;;;;;;;;4961752;28;20562;-76
2022/05/26 00:14:22;;;;;;;1.57;1.30;;;;;;;;;;4970536;28;20447;-76
2022/05/26 00:16:49;;;;;;;2.60;1.47;;;;;;;;;;4970299;28;20494;-76
2022/05/26 00:19:18;;;;;;;4.00;1.43;;;;;;;;;;4972121;28;20533;-76
2022/05/26 00:21:47;;;;;;;1.93;1.30;;;;;;;;;;4951616;28;20809;-75
2022/05/26 00:24:14;;;;;;;1.57;1.20;;;;;;;;;;4972010;28;20832;-76
2022/05/26 00:26:40;;;;;;;2.03;1.30;;;;;;;;;;4972693;28;20430;-76
2022/05/26 00:29:07;;;;;;;1.90;1.60;;;;;;;;;;4971517;28;20439;-76
2022/05/26 00:31:33;;;;;;;1.40;1.27;;;;;;;;;;4968958;28;20517;-75
2022/05/26 00:34:00;;;;;;;3.70;1.50;;;;;;;;;;4971528;28;20431;-76
2022/05/26 00:39:13;;;;;;;1.20;1.00;;;;;;;;;;4972091;28;20442;-76
2022/05/26 00:41:41;;;;;;;6.33;1.37;;;;;;;;;;4970384;28;20466;-76
2022/05/26 00:44:07;;;;;;;1.60;1.40;;;;;;;;;;4972392;28;20431;-76
2022/05/26 00:46:36;;;;;;;1.83;1.20;;;;;;;;;;4970030;28;20993;-75
2022/05/26 00:49:02;;;;;;;1.73;1.60;;;;;;;;;;4971397;28;20557;-76
2022/05/26 00:51:32;;;;;;;1.73;1.20;;;;;;;;;;4970718;28;20481;-76
2022/05/26 00:54:01;;;;;;;1.50;1.10;;;;;;;;;;4967212;28;20439;-76
2022/05/26 00:56:32;;;;;;;1.80;1.20;;;;;;;;;;4967505;28;20533;-76
2022/05/26 00:59:02;;;;;;;1.60;1.17;;;;;;;;;;4970386;28;20841;-76
2022/05/26 01:01:29;;;;;;;1.17;0.90;;;;;;;;;;4969431;28;20561;-76
2022/05/26 01:03:58;;;;;;;2.30;1.00;;;;;;;;;;4972319;28;20442;-76
2022/05/26 01:06:27;;;;;;;1.20;1.10;;;;;;;;;;4970091;28;20545;-76
2022/05/26 01:08:56;;;;;;;2.33;1.10;;;;;;;;;;4971997;28;20558;-76
2022/05/26 01:11:23;;;;;;;1.53;1.00;;;;;;;;;;4971261;28;20458;-76
2022/05/26 01:13:52;;;;;;;3.00;1.20;;;;;;;;;;4972016;28;20517;-76
2022/05/26 01:16:23;;;;;;;1.20;1.10;;;;;;;;;;4972309;28;20474;-76
2022/05/26 01:18:54;;;;;;;1.27;0.90;;;;;;;;;;4971497;28;20532;-76
2022/05/26 01:21:25;;;;;;;1.20;0.90;;;;;;;;;;4970004;28;20457;-75
2022/05/26 01:24:07;;;;;;;2.00;1.60;;;;;;;;;;4970606;28;20447;-76
2022/05/26 01:26:48;;;;;;;1.30;0.83;;;;;;;;;;4984270;28;20501;-76
2022/05/26 01:29:33;;;;;;;2.37;1.10;;;;;;;;;;4970727;28;20450;-76
2022/05/26 01:32:04;;;;;;;1.50;1.17;;;;;;;;;;4958156;28;20453;-75
2022/05/26 01:34:37;;;;;;;1.87;1.00;;;;;;;;;;4973469;28;20527;-75
2022/05/26 01:37:10;;;;;;;1.20;0.97;;;;;;;;;;4990017;28;20466;-76
2022/05/26 01:39:39;;;;;;;1.50;1.40;;;;;;;;;;4974621;28;20453;-76
2022/05/26 01:42:11;;;;;;;2.07;1.10;;;;;;;;;;4974374;28;20520;-76
2022/05/26 01:44:42;;;;;;;1.20;1.07;;;;;;;;;;4957870;28;20454;-76
2022/05/26 01:47:15;;;;;;;5.17;1.60;;;;;;;;;;4973041;28;20434;-76
2022/05/26 01:49:43;;;;;;;1.80;1.30;;;;;;;;;;4969789;28;20938;-76
2022/05/26 01:52:14;;;;;;;1.57;1.20;;;;;;;;;;4963429;28;20489;-75
2022/05/26 01:54:42;;;;;;;3.47;1.10;;;;;;;;;;4970871;28;20744;-75
2022/05/26 01:57:12;;;;;;;1.83;1.00;;;;;;;;;;4973518;28;20478;-75
2022/05/26 01:59:39;;;;;;;1.20;0.90;;;;;;;;;;4972148;28;20454;-75
2022/05/26 02:02:07;;;;;;;1.70;1.13;;;;;;;;;;4971610;28;20832;-75
2022/05/26 02:04:38;;;;;;;1.30;1.10;;;;;;;;;;4972664;28;20876;-75
2022/05/26 02:07:07;;;;;;;2.20;1.27;;;;;;;;;;4971822;28;20552;-75
2022/05/26 02:09:41;;;;;;;1.20;1.00;;;;;;;;;;4972454;28;20465;-76
2022/05/26 02:12:10;;;;;;;2.37;1.23;;;;;;;;;;4973298;28;20497;-75
2022/05/26 02:14:39;;;;;;;1.63;1.03;;;;;;;;;;4971390;28;20525;-75
2022/05/26 02:17:07;;;;;;;1.70;1.27;;;;;;;;;;4970926;28;20537;-75
2022/05/26 02:19:36;;;;;;;1.63;1.40;;;;;;;;;;4972333;28;20462;-75
2022/05/26 02:22:06;;;;;;;1.90;1.50;;;;;;;;;;4972549;28;20472;-75
2022/05/26 02:24:34;;;;;;;1.93;1.30;;;;;;;;;;4973476;28;20427;-75
2022/05/26 02:27:01;;;;;;;8.20;2.37;;;;;;;;;;4973010;28;20443;-74
2022/05/26 02:32:12;;;;;;;2.27;1.20;;;;;;;;;;4971798;28;20967;-75
2022/05/26 02:34:41;;;;;;;2.10;1.30;;;;;;;;;;4973724;28;20442;-76
2022/05/26 02:37:08;;;;;;;1.40;1.13;;;;;;;;;;4948970;29;20471;-75
2022/05/26 02:39:35;;;;;;;1.30;1.20;;;;;;;;;;4950949;28;20791;-75
2022/05/26 02:42:02;;;;;;;1.50;1.00;;;;;;;;;;4968515;28;20826;-75
2022/05/26 02:44:30;;;;;;;2.33;1.17;;;;;;;;;;4966151;28;20430;-76
2022/05/26 02:47:01;;;;;;;2.13;1.30;;;;;;;;;;4965055;28;20487;-76
2022/05/26 02:49:36;;;;;;;2.30;1.27;;;;;;;;;;4973261;28;20438;-75
2022/05/26 02:52:07;;;;;;;2.10;1.23;;;;;;;;;;4935107;28;1080977;-75
2022/05/26 02:54:41;;;;;;;1.17;1.00;;;;;;;;;;4974106;28;20446;-75
2022/05/26 02:57:12;;;;;;;2.00;1.37;;;;;;;;;;4972596;28;20481;-75
2022/05/26 02:59:43;;;;;;;1.50;1.40;;;;;;;;;;4971445;28;20957;-75
2022/05/26 03:02:12;;;;;;;2.07;1.50;;;;;;;;;;4973199;28;20525;-76
2022/05/26 03:04:40;;;;;;;1.63;1.20;;;;;;;;;;4973335;28;20541;-75
2022/05/26 03:07:09;;;;;;;1.80;1.37;;;;;;;;;;4972149;28;20461;-75
2022/05/26 03:09:36;;;;;;;3.40;1.20;;;;;;;;;;4972905;28;20442;-75
2022/05/26 03:12:03;;;;;;;2.03;1.17;;;;;;;;;;4969720;28;20469;-76
2022/05/26 03:14:30;;;;;;;1.40;1.10;;;;;;;;;;4955839;28;21208;-75
2022/05/26 03:16:56;;;;;;;1.40;1.10;;;;;;;;;;4972357;28;20900;-75
2022/05/26 03:19:23;;;;;;;2.50;1.37;;;;;;;;;;4972475;28;20973;-75
2022/05/26 03:21:49;;;;;;;1.57;1.10;;;;;;;;;;4972424;28;20933;-75
2022/05/26 03:24:18;;;;;;;4.10;1.10;;;;;;;;;;4971342;28;20992;-74
2022/05/26 03:26:44;;;;;;;3.37;1.30;;;;;;;;;;4971657;28;20441;-75
2022/05/26 03:29:11;;;;;;;1.73;1.10;;;;;;;;;;4972827;28;20434;-75
2022/05/26 03:31:37;;;;;;;1.77;1.60;;;;;;;;;;4973638;28;20864;-75
2022/05/26 03:42:17;;;;;;;1.60;1.30;;;;;;;;;;4958484;28;20786;-76
2022/05/26 03:44:44;;;;;;;1.60;1.30;;;;;;;;;;4969663;28;21127;-75
2022/05/26 03:47:11;;;;;;;2.70;1.30;;;;;;;;;;4964959;28;20787;-75
2022/05/26 03:49:37;;;;;;;1.47;1.30;;;;;;;;;;4953394;28;20526;-75
2022/05/26 03:52:04;;;;;;;1.93;1.10;;;;;;;;;;4955355;28;20540;-75
2022/05/26 03:54:33;;;;;;;1.67;1.23;;;;;;;;;;4971730;28;20454;-76
2022/05/26 03:57:01;;;;;;;1.73;1.30;;;;;;;;;;4955200;28;20466;-74
2022/05/26 03:59:27;;;;;;;1.40;0.97;;;;;;;;;;4954338;28;20455;-75
2022/05/26 04:01:54;;;;;;;1.80;1.20;;;;;;;;;;4972670;28;20745;-74
2022/05/26 04:04:20;;;;;;;2.47;1.03;;;;;;;;;;4927686;28;20557;-75
2022/05/26 04:06:48;;;;;;;1.90;1.00;;;;;;;;;;4973144;28;20427;-75
2022/05/26 04:09:15;;;;;;;1.80;1.40;;;;;;;;;;4954954;28;20501;-74
2022/05/26 04:11:41;;;;;;;1.63;1.13;;;;;;;;;;4971168;28;20465;-74
2022/05/26 04:14:09;;;;;;;1.40;1.00;;;;;;;;;;4953299;28;20945;-75
2022/05/26 04:16:36;;;;;;;1.37;1.07;;;;;;;;;;4972284;28;20818;-75
2022/05/26 04:19:02;;;;;;;2.27;1.50;;;;;;;;;;4972123;28;20824;-74
2022/05/26 04:21:29;;;;;;;1.63;1.03;;;;;;;;;;4970717;28;20442;-75
2022/05/26 04:23:55;;;;;;;1.93;1.10;;;;;;;;;;4953391;28;20552;-75
2022/05/26 04:26:22;;;;;;;4.20;1.10;;;;;;;;;;4954706;28;20945;-75
2022/05/26 04:28:48;;;;;;;2.47;1.30;;;;;;;;;;4955106;28;20458;-75
2022/05/26 04:31:16;;;;;;;1.87;1.10;;;;;;;;;;4954047;28;20459;-75
2022/05/26 04:33:44;;;;;;;1.60;1.30;;;;;;;;;;4971506;28;20445;-75
2022/05/26 04:36:11;;;;;;;1.77;1.30;;;;;;;;;;4972523;28;20472;-75
2022/05/26 04:38:37;;;;;;;1.93;1.07;;;;;;;;;;4972007;28;20526;-74
2022/05/26 04:41:06;;;;;;;1.77;1.27;;;;;;;;;;4971450;28;20940;-75
2022/05/26 04:43:32;;;;;;;3.33;0.87;;;;;;;;;;4955066;28;20582;-75
2022/05/26 04:45:59;;;;;;;1.37;1.00;;;;;;;;;;4972035;28;20497;-75
2022/05/26 04:48:30;;;;;;;3.10;1.10;;;;;;;;;;4971976;28;20439;-75
2022/05/26 04:50:56;;;;;;;1.37;1.10;;;;;;;;;;4970057;28;20482;-75
2022/05/26 04:53:22;;;;;;;4.50;1.07;;;;;;;;;;4972258;28;20847;-75
2022/05/26 04:55:53;;;;;;;1.10;1.00;;;;;;;;;;4972808;28;20486;-76
2022/05/26 04:58:19;;;;;;;2.60;1.00;;;;;;;;;;4955210;28;20505;-75
2022/05/26 05:00:46;;;;;;;2.73;1.10;;;;;;;;;;4968987;28;20469;-75
2022/05/26 05:03:12;;;;;;;1.30;0.80;;;;;;;;;;4955715;28;20541;-75
2022/05/26 05:05:40;;;;;;;1.20;0.90;;;;;;;;;;4975709;28;20504;-75
2022/05/26 05:08:07;;;;;;;1.00;0.70;;;;;;;;;;4975295;28;20470;-75
2022/05/26 05:10:33;;;;;;;2.50;1.20;;;;;;;;;;4950425;28;20482;-75
2022/05/26 05:13:00;;;;;;;1.77;1.50;;;;;;;;;;4978785;28;20742;-75
2022/05/26 05:15:29;;;;;;;2.63;0.90;;;;;;;;;;4958775;28;20448;-75
2022/05/26 05:17:58;;;;;;;1.40;1.10;;;;;;;;;;4955850;28;20952;-75
2022/05/26 05:20:25;;;;;;;1.83;0.90;;;;;;;;;;4973533;28;20505;-75
2022/05/26 05:22:54;;;;;;;1.57;1.20;;;;;;;;;;4975845;28;20458;-75
2022/05/26 05:25:23;;;;;;;1.50;1.10;;;;;;;;;;4975410;28;20934;-75
2022/05/26 05:27:52;;;;;;;2.60;1.10;;;;;;;;;;4957143;28;20446;-75
2022/05/26 05:30:20;;;;;;;1.77;0.90;;;;;;;;;;4956672;28;20450;-75
2022/05/26 05:32:48;;;;;;;1.80;0.90;;;;;;;;;;4958172;28;20948;-75
2022/05/26 05:35:20;;;;;;;2.57;1.30;;;;;;;;;;4957463;28;20454;-75
2022/05/26 05:37:47;;;;;;;1.23;1.00;;;;;;;;;;4957117;28;20566;-75
2022/05/26 05:40:15;;;;;;;2.03;1.30;;;;;;;;;;4957189;28;20450;-75
2022/05/26 05:42:41;;;;;;;1.30;1.00;;;;;;;;;;4957808;28;20435;-75
2022/05/26 05:45:08;;;;;;;1.40;0.90;;;;;;;;;;4970470;28;20479;-75
2022/05/26 05:47:35;;;;;;;1.40;1.07;;;;;;;;;;4967372;28;20537;-75
2022/05/26 05:50:06;;;;;;;1.00;0.70;;;;;;;;;;4944869;28;20577;-75
2022/05/26 05:52:33;;;;;;;1.97;0.80;;;;;;;;;;4971342;28;20439;-75
2022/05/26 05:55:00;;;;;;;1.03;0.77;;;;;;;;;;4968860;28;20470;-75
2022/05/26 05:57:27;;;;;;;1.77;1.00;;;;;;;;;;4971210;28;20475;-75
2022/05/26 05:59:54;;;;;;;2.37;1.00;;;;;;;;;;4955513;28;20579;-75
2022/05/26 06:02:21;;;;;;;1.30;0.93;;;;;;;;;;4957386;28;20497;-76
2022/05/26 06:04:47;;;;;;;1.20;0.90;;;;;;;;;;4973165;28;20482;-76
2022/05/26 06:07:15;;;;;;;6.10;0.97;;;;;;;;;;4974095;28;20430;-76
2022/05/26 06:09:41;;;;;;;2.63;1.00;;;;;;;;;;4953517;28;21005;-75
2022/05/26 06:12:09;;;;;;;2.30;1.10;;;;;;;;;;4973932;28;20801;-75
2022/05/26 06:14:36;;;;;;;1.77;1.00;;;;;;;;;;4955958;28;20474;-75
2022/05/26 06:17:03;;;;;;;2.00;0.90;;;;;;;;;;4956950;28;20905;-76
2022/05/26 06:19:30;;;;;;;0.93;0.77;;;;;;;;;;4945451;28;21354;-75
2022/05/26 06:21:56;;;;;;;3.07;1.20;;;;;;;;;;4962192;28;21083;-75
2022/05/26 06:24:25;;;;;;;1.03;0.70;;;;;;;;;;4967577;28;20478;-75
2022/05/26 06:26:52;;;;;;;2.27;1.00;;;;;;;;;;4946908;28;20474;-75
2022/05/26 06:37:32;;;;;;;1.30;1.20;;;;;;;;;;4955233;28;20493;-75
2022/05/26 06:39:59;;;;;;;1.80;0.97;;;;;;;;;;4956231;28;20537;-75
2022/05/26 06:42:26;;;;;;;1.90;1.07;;;;;;;;;;4956946;28;20473;-75
2022/05/26 06:45:01;;;;;;;1.30;1.10;;;;;;;;;;4937390;28;20972;-75
2022/05/26 06:47:29;;;;;;;3.20;1.20;;;;;;;;;;4943418;29;20558;-76
2022/05/26 06:49:55;;;;;;;4.40;1.00;;;;;;;;;;4966259;28;20449;-76
2022/05/26 06:52:23;;;;;;;1.83;1.10;;;;;;;;;;4956879;28;21063;-75
2022/05/26 06:54:50;;;;;;;5.27;0.90;;;;;;;;;;4970932;28;20466;-75
2022/05/26 06:57:16;;;;;;;1.13;0.97;;;;;;;;;;4970339;28;20473;-76
2022/05/26 06:59:43;;;;;;;1.40;1.07;;;;;;;;;;4970438;28;20434;-75
2022/05/26 07:02:11;;;;;;;1.40;0.97;;;;;;;;;;4963152;28;21580;-76
2022/05/26 07:04:39;;;;;;;1.60;0.97;;;;;;;;;;4968533;28;20802;-75
2022/05/26 07:07:09;;;;;;;2.20;0.93;;;;;;;;;;4984668;28;20455;-75
2022/05/26 07:09:36;;;;;;;1.30;1.20;;;;;;;;;;4963011;28;20452;-75
2022/05/26 07:12:02;;;;;;;1.20;0.83;;;;;;;;;;4969200;28;20852;-75
2022/05/26 07:14:29;;;;;;;3.00;1.30;;;;;;;;;;4972670;28;20501;-75
2022/05/26 07:16:55;;;;;;;1.00;0.90;;;;;;;;;;4972125;28;20500;-75
2022/05/26 07:19:22;;;;;;;2.00;1.13;;;;;;;;;;4971063;28;20450;-75
2022/05/26 07:21:50;;;;;;;1.80;1.07;;;;;;;;;;4971321;28;20525;-76
2022/05/26 07:24:18;;;;;;;1.73;0.80;;;;;;;;;;4970815;28;20451;-75
2022/05/26 07:26:45;;;;;;;2.07;1.00;;;;;;;;;;4971546;28;20517;-75
2022/05/26 07:29:11;;;;;;;1.10;0.80;;;;;;;;;;4965042;28;20454;-76
2022/05/26 07:31:38;;;;;;;2.00;1.03;;;;;;;;;;4967084;28;20466;-75
2022/05/26 07:34:05;;;;;;;0.93;0.70;;;;;;;;;;4971903;28;20513;-75
2022/05/26 07:42:02;;;;;;;1.57;0.83;;;;;;;;;;4969467;28;20461;-76
2022/05/26 07:44:29;;;;;;;2.33;0.97;;;;;;;;;;4957110;28;20754;-75
2022/05/26 07:46:56;;;;;;;1.57;1.00;;;;;;;;;;4970374;28;20513;-75
2022/05/26 07:49:22;;;;;;;1.73;1.00;;;;;;;;;;4957995;28;20773;-76
2022/05/26 07:51:49;;;;;;;1.50;0.93;;;;;;;;;;4969160;28;20482;-76
2022/05/26 07:54:17;;;;;;;1.37;0.80;;;;;;;;;;4952525;28;20455;-76
2022/05/26 07:56:43;;;;;;;1.50;0.83;;;;;;;;;;4951062;28;20902;-73
2022/05/26 07:59:10;;;;;;;1.20;0.93;;;;;;;;;;4964985;28;20984;-74
2022/05/26 08:01:37;;;;;;;1.10;0.87;;;;;;;;;;4971867;28;20798;-76
2022/05/26 08:04:05;;;;;;;2.23;0.83;;;;;;;;;;4955432;28;20449;-74
2022/05/26 08:06:32;;;;;;;1.10;0.80;;;;;;;;;;4972063;28;20451;-74
2022/05/26 08:08:58;;;;;;;1.70;0.90;;;;;;;;;;4969885;28;20427;-74
2022/05/26 08:11:26;;;;;;;1.57;1.10;;;;;;;;;;4970264;28;20485;-74
2022/05/26 08:13:53;;;;;;;1.43;0.90;;;;;;;;;;4972803;28;20429;-74
2022/05/26 08:16:19;;;;;;;1.43;0.90;;;;;;;;;;4971156;28;20533;-75
2022/05/26 08:18:48;;;;;;;1.40;1.10;;;;;;;;;;4970313;28;20466;-75
2022/05/26 08:21:17;;;;;;;3.03;0.70;;;;;;;;;;4953376;28;20458;-74
2022/05/26 08:23:44;;;;;;;1.03;0.70;;;;;;;;;;4970813;28;20925;-75
2022/05/26 08:26:11;;;;;;;2.80;1.17;;;;;;;;;;4970848;28;20446;-74
2022/05/26 08:28:39;;;;;;;2.03;1.20;;;;;;;;;;4968825;28;20434;-74
2022/05/26 08:31:08;;;;;;;1.10;0.80;;;;;;;;;;4970473;28;20462;-75
2022/05/26 08:33:35;;;;;;;0.90;0.70;;;;;;;;;;4972279;28;20466;-74
2022/05/26 08:36:02;;;;;;;1.50;1.07;;;;;;;;;;4971814;28;20503;-75
2022/05/26 08:38:29;;;;;;;1.00;0.80;;;;;;;;;;4971624;28;20497;-74
2022/05/26 08:40:56;;;;;;;1.97;1.10;;;;;;;;;;4974866;28;20774;-75
2022/05/26 08:43:25;;;;;;;1.30;0.73;;;;;;;;;;4974264;28;20537;-75
2022/05/26 08:45:54;;;;;;;6.00;1.17;;;;;;;;;;4974138;28;20467;-74
2022/05/26 08:48:33;;;;;;;1.63;0.90;;;;;;;;;;4975440;28;20848;-74
2022/05/26 08:51:00;;;;;;;1.13;0.70;;;;;;;;;;4974013;28;20538;-74
2022/05/26 08:53:30;;;;;;;1.77;0.87;;;;;;;;;;4977123;28;20449;-74
2022/05/26 08:55:56;;;;;;;2.60;0.70;;;;;;;;;;4976009;28;20882;-78
2022/05/26 08:58:26;;;;;;;2.30;1.10;;;;;;;;;;4975420;28;20567;-79
2022/05/26 09:00:54;;;;;;;1.30;0.90;;;;;;;;;;4975074;28;20445;-78
2022/05/26 09:03:24;;;;;;;2.70;1.00;;;;;;;;;;4975119;28;20557;-78
2022/05/26 09:05:52;;;;;;;2.87;0.80;;;;;;;;;;4971750;28;20807;-74
2022/05/26 09:13:49;;;;;;;1.23;1.00;;;;;;;;;;4959159;28;20573;-74
2022/05/26 09:16:17;;;;;;;3.60;1.03;;;;;;;;;;4974850;28;20845;-74
2022/05/26 09:18:44;;;;;;;1.90;1.00;;;;;;;;;;4975460;28;20466;-74
2022/05/26 09:21:22;;;;;;;1.23;1.00;;;;;;;;;;4974415;28;20446;-75
2022/05/26 09:23:49;;;;;;;2.20;1.20;;;;;;;;;;4971342;28;20888;-75
2022/05/26 09:26:17;;;;;;;1.87;0.80;;;;;;;;;;4975383;28;20446;-74
2022/05/26 09:28:46;;;;;;;2.47;0.93;;;;;;;;;;4975456;28;20825;-74
2022/05/26 09:31:37;;;;;;;2.13;1.10;;;;;;;;;;4974061;28;20945;-74
2022/05/26 09:34:11;;;;;;;1.10;0.87;;;;;;;;;;4969524;28;20732;-78
2022/05/26 09:36:40;;;;;;;1.97;1.10;;;;;;;;;;4973816;28;20447;-79
2022/05/26 09:39:07;;;;;;;1.80;1.10;;;;;;;;;;4974276;28;20981;-79
2022/05/26 09:41:41;;;;;;;1.70;0.90;;;;;;;;;;4975072;28;20521;-80
2022/05/26 09:44:18;;;;;;;1.10;0.80;;;;;;;;;;4970780;28;20455;-79
2022/05/26 09:46:49;;;;;;;1.20;1.00;;;;;;;;;;4971872;28;20434;-79
2022/05/26 09:49:16;;;;;;;1.37;1.20;;;;;;;;;;4973615;28;20450;-79
2022/05/26 09:51:43;;;;;;;2.70;1.40;;;;;;;;;;4967362;28;20474;-79
2022/05/26 09:54:20;;;;;;;1.20;0.97;;;;;;;;;;4974984;28;20422;-79
2022/05/26 09:56:47;;;;;;;1.50;1.10;;;;;;;;;;4974861;28;20435;-79
2022/05/26 09:59:22;;;;;;;2.07;1.20;;;;;;;;;;4973387;28;20578;-79
2022/05/26 10:01:52;;;;;;;1.10;1.00;;;;;;;;;;4971106;28;20456;-79
2022/05/26 10:04:23;;;;;;;2.17;1.20;;;;;;;;;;4974026;28;20498;-79
2022/05/26 10:06:53;;;;;;;1.17;0.80;;;;;;;;;;4975497;28;20523;-79
2022/05/26 10:09:23;;;;;;;1.53;0.77;;;;;;;;;;4974037;28;20431;-79
2022/05/26 10:11:56;;;;;;;1.80;1.50;;;;;;;;;;4955661;28;20453;-79
2022/05/26 10:14:31;;;;;;;1.40;0.80;;;;;;;;;;4974305;28;20530;-80
2022/05/26 10:17:02;;;;;;;1.60;1.10;;;;;;;;;;4973749;28;21051;-79
2022/05/26 10:19:35;;;;;;;4.03;1.20;;;;;;;;;;4972546;28;20497;-79
2022/05/26 10:22:08;;;;;;;3.57;1.10;;;;;;;;;;4971523;28;20564;-80
2022/05/26 10:24:44;;;;;;;1.30;1.00;;;;;;;;;;4954557;29;20447;-80
2022/05/26 10:27:16;;;;;;;2.23;1.43;;;;;;;;;;4954245;29;20545;-80
2022/05/26 10:29:56;;;;;;;1.70;1.30;;;;;;;;;;4944734;28;20461;-80
2022/05/26 10:32:27;;;;;;;1.40;1.10;;;;;;;;;;4970859;28;20442;-80
2022/05/26 10:35:08;;;;;;;2.03;1.17;;;;;;;;;;4960184;28;20439;-80
2022/05/26 10:37:43;;;;;;;2.60;0.87;;;;;;;;;;4957469;28;20517;-80
2022/05/26 10:40:16;;;;;;;1.33;1.00;;;;;;;;;;4973039;28;20461;-80
2022/05/26 10:42:43;;;;;;;1.57;1.10;;;;;;;;;;4971185;28;20549;-80
2022/05/26 10:45:13;;;;;;;1.50;0.97;;;;;;;;;;4971816;28;20957;-80
2022/05/26 10:47:46;;;;;;;1.80;1.17;;;;;;;;;;4973635;28;20435;-80
2022/05/26 10:50:17;;;;;;;3.20;0.80;;;;;;;;;;4972376;28;20461;-80
2022/05/26 10:52:46;;;;;;;0.87;0.63;;;;;;;;;;4953567;28;20549;-78
2022/05/26 10:55:14;;;;;;;1.90;1.10;;;;;;;;;;4956504;28;20542;-80
2022/05/26 10:57:43;;;;;;;1.60;1.20;;;;;;;;;;4971765;28;20524;-79
2022/05/26 11:00:11;;;;;;;2.00;1.30;;;;;;;;;;4955393;28;20437;-79
2022/05/26 11:02:40;;;;;;;1.83;1.13;;;;;;;;;;4952416;28;20446;-79
2022/05/26 11:05:09;;;;;;;2.07;1.30;;;;;;;;;;4941782;28;20434;-79
2022/05/26 11:07:39;;;;;;;1.93;1.23;;;;;;;;;;4951429;28;20984;-79
2022/05/26 11:10:07;;;;;;;2.00;1.23;;;;;;;;;;4952799;28;20443;-79
2022/05/26 11:12:37;;;;;;;1.30;1.00;;;;;;;;;;4955583;28;20550;-80
2022/05/26 11:17:54;;;;;;;1.77;1.07;;;;;;;;;;4955119;28;20461;-79
2022/05/26 11:20:23;;;;;;;3.60;1.10;;;;;;;;;;4957733;28;20457;-79
2022/05/26 11:22:51;;;;;;;1.73;1.27;;;;;;;;;;4955741;28;20459;-79
2022/05/26 11:25:26;;;;;;;1.20;1.03;;;;;;;;;;4954445;28;20506;-79
2022/05/26 11:27:54;;;;;;;2.20;1.03;;;;;;;;;;4956799;28;20458;-79
2022/05/26 11:36:10;;;;;;;2.40;1.37;;;;;;;;;;4936940;28;20447;-79
2022/05/26 11:38:41;;;;;;;1.10;0.83;;;;;;;;;;4939857;28;20867;-79
2022/05/26 11:41:08;;;;;;;1.37;0.90;;;;;;;;;;4970343;28;20840;-79
2022/05/26 11:43:42;;;;;;;1.83;1.20;;;;;;;;;;4971298;28;20455;-80
2022/05/26 11:46:09;;;;;;;1.10;1.00;;;;;;;;;;4968150;28;20469;-80
2022/05/26 11:48:41;;;;;;;1.37;1.27;;;;;;;;;;4945828;28;20525;-79
2022/05/26 11:51:22;;;;;;;1.30;1.00;;;;;;;;;;4960557;28;20478;-79
2022/05/26 11:53:50;;;;;;;1.23;0.90;;;;;;;;;;4969034;28;20463;-79
2022/05/26 11:56:35;;;;;;;1.93;1.20;;;;;;;;;;4967312;28;20465;-80
2022/05/26 11:59:35;;;;;;;1.33;1.20;;;;;;;;;;4959983;28;20475;-79
2022/05/26 12:02:27;;;;;;;2.80;1.00;;;;;;;;;;4955364;28;20558;-80
2022/05/26 12:04:54;;;;;;;1.40;1.00;;;;;;;;;;4936544;29;20455;-79
2022/05/26 12:07:38;;;;;;;1.50;1.20;;;;;;;;;;4951299;28;20547;-79
2022/05/26 12:10:23;;;;;;;2.03;0.97;;;;;;;;;;4961049;28;20446;-79
2022/05/26 12:12:50;;;;;;;2.93;1.43;;;;;;;;;;4970841;28;20454;-79
2022/05/26 12:15:19;;;;;;;2.93;1.20;;;;;;;;;;4971162;28;20922;-79
2022/05/26 12:17:48;;;;;;;2.00;1.50;;;;;;;;;;4970022;28;20801;-79
2022/05/26 12:20:29;;;;;;;1.60;1.30;;;;;;;;;;4953493;28;20473;-81
2022/05/26 12:23:14;;;;;;;1.90;1.30;;;;;;;;;;4961754;28;20451;-80
2022/05/26 12:25:43;;;;;;;1.20;1.00;;;;;;;;;;4953596;28;20486;-80
2022/05/26 12:28:29;;;;;;;1.00;0.80;;;;;;;;;;4969084;28;20458;-80
2022/05/26 12:31:14;;;;;;;2.70;1.20;;;;;;;;;;4962448;28;20451;-79
2022/05/26 12:34:13;;;;;;;1.20;1.10;;;;;;;;;;4971434;28;20944;-80
2022/05/26 12:36:51;;;;;;;1.33;1.00;;;;;;;;;;4889409;29;20560;-80
2022/05/26 12:39:43;;;;;;;1.47;1.30;;;;;;;;;;4896384;29;20468;-80
2022/05/26 12:42:15;;;;;;;2.40;1.40;;;;;;;;;;4927815;28;20573;-80
2022/05/26 12:44:52;;;;;;;1.70;1.30;;;;;;;;;;4965226;28;20510;-80
2022/05/26 12:47:28;;;;;;;1.20;1.00;;;;;;;;;;4957749;28;20463;-80
2022/05/26 12:49:57;;;;;;;1.73;1.30;;;;;;;;;;4970113;28;20430;-79
2022/05/26 12:52:26;;;;;;;1.40;1.30;;;;;;;;;;4970955;28;20486;-80
2022/05/26 12:54:56;;;;;;;1.67;1.20;;;;;;;;;;4968383;28;20451;-80
2022/05/26 12:57:25;;;;;;;1.83;1.10;;;;;;;;;;4954256;28;20848;-80
2022/05/26 12:59:52;;;;;;;2.27;1.50;;;;;;;;;;4971093;28;20466;-80
2022/05/26 13:02:26;;;;;;;2.67;1.53;;;;;;;;;;4953468;28;20456;-80
2022/05/26 13:04:53;;;;;;;1.20;1.00;;;;;;;;;;4955008;28;20438;-80
2022/05/26 13:07:20;;;;;;;1.87;1.40;;;;;;;;;;4953832;28;20446;-80
2022/05/26 13:09:47;;;;;;;1.77;1.40;;;;;;;;;;4970885;28;20449;-80
2022/05/26 13:12:19;;;;;;;1.70;1.13;;;;;;;;;;4967043;28;20458;-80
2022/05/26 13:14:48;;;;;;;2.00;1.77;;;;;;;;;;4954157;28;20538;-80
2022/05/26 13:17:16;;;;;;;1.70;1.33;;;;;;;;;;4971636;28;20474;-80
2022/05/26 13:19:43;;;;;;;1.53;1.40;;;;;;;;;;4970195;28;20472;-80
2022/05/26 13:22:14;;;;;;;1.83;1.43;;;;;;;;;;4947229;28;20450;-80
2022/05/26 13:24:48;;;;;;;2.00;1.20;;;;;;;;;;4960321;28;20795;-80
2022/05/26 13:27:15;;;;;;;2.43;1.50;;;;;;;;;;4973279;28;20501;-80
2022/05/26 13:29:43;;;;;;;2.13;1.57;;;;;;;;;;4974325;28;20518;-80
2022/05/26 13:34:57;;;;;;;1.70;1.27;;;;;;;;;;4955049;28;20469;-80
2022/05/26 13:37:25;;;;;;;1.20;1.00;;;;;;;;;;4957623;28;20802;-80
2022/05/26 13:40:09;;;;;;;2.57;1.40;;;;;;;;;;4952123;29;20478;-80
2022/05/26 13:42:36;;;;;;;2.50;1.80;;;;;;;;;;4974698;28;20454;-80
2022/05/26 13:45:04;;;;;;;3.07;1.60;;;;;;;;;;4958344;28;20449;-80
2022/05/26 13:47:32;;;;;;;3.03;1.77;;;;;;;;;;4974646;28;20521;-80
2022/05/26 13:50:01;;;;;;;2.47;2.13;;;;;;;;;;4957043;28;20446;-80
2022/05/26 13:52:28;;;;;;;2.10;1.77;;;;;;;;;;4957247;28;20456;-80
2022/05/26 13:54:55;;;;;;;2.77;2.07;;;;;;;;;;4972328;28;20439;-80
2022/05/26 13:57:23;;;;;;;2.33;1.90;;;;;;;;;;4956007;28;20451;-80
2022/05/26 13:59:52;;;;;;;6.23;2.03;;;;;;;;;;4969733;28;20502;-80
2022/05/26 14:02:20;;;;;;;2.57;1.70;;;;;;;;;;4957530;28;20454;-80
2022/05/26 14:04:57;;;;;;;3.47;1.70;;;;;;;;;;4955621;28;20458;-80
2022/05/26 14:07:24;;;;;;;2.10;1.93;;;;;;;;;;4974816;28;20485;-80
2022/05/26 14:10:00;;;;;;;1.60;1.50;;;;;;;;;;4957287;28;20454;-80
2022/05/26 14:12:28;;;;;;;4.40;1.97;;;;;;;;;;4973910;28;20980;-80
2022/05/26 14:14:56;;;;;;;2.93;2.10;;;;;;;;;;4954972;28;21009;-80
2022/05/26 14:17:26;;;;;;;2.07;1.97;;;;;;;;;;4973689;28;20503;-80
2022/05/26 14:19:56;;;;;;;3.20;1.70;;;;;;;;;;4954002;28;20470;-80
2022/05/26 14:22:25;;;;;;;1.87;1.33;;;;;;;;;;4948603;28;20486;-80
2022/05/26 14:24:53;;;;;;;1.70;1.60;;;;;;;;;;4963324;28;21044;-79
2022/05/26 14:27:21;;;;;;;1.90;1.70;;;;;;;;;;4973736;28;20475;-80
2022/05/26 14:29:48;;;;;;;1.77;1.53;;;;;;;;;;4955252;28;20529;-80
2022/05/26 14:32:16;;;;;;;2.63;1.93;;;;;;;;;;4948546;28;20455;-80
2022/05/26 14:34:44;;;;;;;2.43;1.77;;;;;;;;;;4966353;28;20442;-80
2022/05/26 14:37:10;;;;;;;3.70;2.00;;;;;;;;;;4957895;28;20597;-79
2022/05/26 14:39:38;;;;;;;1.83;1.50;;;;;;;;;;4953711;28;20851;-80
2022/05/26 14:42:06;;;;;;;2.30;1.67;;;;;;;;;;4929827;28;20465;-80
2022/05/26 14:44:33;;;;;;;1.20;1.10;;;;;;;;;;4963052;28;20435;-81
2022/05/26 14:46:59;;;;;;;1.93;1.73;;;;;;;;;;4962368;28;20447;-81
2022/05/26 14:49:26;;;;;;;2.33;1.53;;;;;;;;;;4959054;28;20518;-80
2022/05/26 14:51:53;;;;;;;1.93;1.70;;;;;;;;;;4964177;28;20521;-80
2022/05/26 14:57:06;;;;;;;2.10;1.70;;;;;;;;;;4970472;28;20509;-80
2022/05/26 14:59:35;;;;;;;1.77;1.67;;;;;;;;;;4973664;28;20521;-80
2022/05/26 15:02:02;;;;;;;2.27;2.07;;;;;;;;;;4973746;28;20442;-80
2022/05/26 15:04:28;;;;;;;1.80;1.70;;;;;;;;;;4974360;28;20534;-80
2022/05/26 15:06:58;;;;;;;2.03;1.70;;;;;;;;;;4971111;28;20487;-80
2022/05/26 15:09:26;;;;;;;6.40;1.60;;;;;;;;;;4972185;28;20450;-80
2022/05/26 15:11:54;;;;;;;2.53;1.90;;;;;;;;;;4955552;28;20541;-80
2022/05/26 15:14:22;;;;;;;1.60;1.50;;;;;;;;;;4955885;28;20535;-79
2022/05/26 15:16:49;;;;;;;2.07;1.77;;;;;;;;;;4973062;28;20493;-80
2022/05/26 15:19:19;;;;;;;1.67;1.37;;;;;;;;;;4973110;28;20465;-79
2022/05/26 15:21:46;;;;;;;2.20;1.53;;;;;;;;;;4971168;28;20447;-79
2022/05/26 15:24:13;;;;;;;4.70;1.73;;;;;;;;;;4970258;28;20443;-80
2022/05/26 15:26:40;;;;;;;2.00;1.80;;;;;;;;;;4978192;28;20549;-79
2022/05/26 15:29:06;;;;;;;2.10;1.47;;;;;;;;;;4974992;28;20461;-79
2022/05/26 15:31:35;;;;;;;1.50;1.27;;;;;;;;;;4971648;28;20550;-80
2022/05/26 15:34:01;;;;;;;1.63;1.53;;;;;;;;;;4965532;28;20474;-79
2022/05/26 15:36:29;;;;;;;1.77;1.63;;;;;;;;;;4970058;28;20451;-79
2022/05/26 15:38:57;;;;;;;2.33;1.70;;;;;;;;;;4971505;28;20446;-79
2022/05/26 15:41:23;;;;;;;1.70;1.60;;;;;;;;;;4972864;28;20506;-80
2022/05/26 15:43:50;;;;;;;2.77;1.70;;;;;;;;;;4966765;28;20503;-80